Time;durP1;ratioP1;P1;durP2;ratioP2;P2;SDS_P1;SDS_P2;PMS_P1;PMS_P2;Temp;Humidity;BMP_temperature;BMP_pressure;BME280_temperature;BME280_humidity;BME280_pressure;Samples;Min_cycle;Max_cycle;Signal;HPM_P1;HPM_P2
2023/05/31 00:01:30;;;;;;;5.35;2.35;;;;;;;19.09;36.52;101022.41;4099444;28;20046;-66
2023/05/31 00:03:35;;;;;;;8.77;3.00;;;;;;;19.09;36.44;101017.13;4114848;28;20041;-66
2023/05/31 00:05:39;;;;;;;7.28;2.33;;;;;;;19.09;36.53;101020.63;4119336;28;20038;-66
2023/05/31 00:07:42;;;;;;;8.98;3.22;;;;;;;19.10;36.58;101011.84;4093194;28;20038;-67
2023/05/31 00:09:45;;;;;;;7.53;2.70;;;;;;;19.10;36.49;101009.19;4116270;28;20069;-66
2023/05/31 00:11:48;;;;;;;5.13;2.60;;;;;;;19.11;36.71;101010.91;4118263;28;20125;-67
2023/05/31 00:13:51;;;;;;;10.93;3.13;;;;;;;19.06;36.65;101011.88;4110664;28;20061;-66
2023/05/31 00:15:54;;;;;;;6.45;2.40;;;;;;;19.01;37.00;101022.47;4117143;28;20054;-66
2023/05/31 00:17:56;;;;;;;10.10;2.97;;;;;;;19.08;36.32;101018.00;4118618;28;20489;-67
2023/05/31 00:19:59;;;;;;;6.53;2.60;;;;;;;19.03;36.72;101023.34;4116234;28;20047;-66
2023/05/31 00:22:04;;;;;;;5.43;2.40;;;;;;;19.05;36.06;101015.41;4119010;28;20038;-67
2023/05/31 00:24:07;;;;;;;;;;;;;;;19.01;36.43;101014.56;4113891;28;20501;-67
2023/05/31 00:26:10;;;;;;;9.70;2.88;;;;;;;18.93;36.78;101017.28;4093380;28;19991;-67
2023/05/31 00:28:14;;;;;;;5.65;2.58;;;;;;;18.94;36.52;101013.78;4119172;28;20071;-67
2023/05/31 00:30:18;;;;;;;5.97;2.63;;;;;;;19.01;36.36;101014.56;4112821;28;20049;-67
2023/05/31 00:32:21;;;;;;;10.10;2.58;;;;;;;19.00;36.64;101005.78;4114615;28;20498;-67
2023/05/31 00:34:24;;;;;;;6.70;2.85;;;;;;;19.00;36.53;101002.28;4102298;28;20039;-67
2023/05/31 00:36:27;;;;;;;5.03;2.15;;;;;;;18.97;36.67;101002.34;4112990;28;20035;-67
2023/05/31 00:38:31;;;;;;;8.90;2.75;;;;;;;18.88;37.23;101010.31;4100916;28;20035;-67
2023/05/31 00:40:35;;;;;;;12.55;3.25;;;;;;;18.93;37.06;101005.88;4099047;28;20556;-67
2023/05/31 00:42:38;;;;;;;6.25;2.47;;;;;;;18.88;36.73;101011.22;4112878;28;20504;-67
2023/05/31 00:44:41;;;;;;;7.95;2.90;;;;;;;19.01;36.18;101001.38;4100807;28;20046;-67
2023/05/31 00:46:44;;;;;;;9.98;2.42;;;;;;;19.02;35.94;101014.53;4100236;28;20379;-67
2023/05/31 00:48:47;;;;;;;6.95;2.67;;;;;;;18.95;36.29;101020.78;4098216;28;20043;-67
2023/05/31 00:50:50;;;;;;;7.35;3.25;;;;;;;18.93;35.99;101009.38;4113093;28;20050;-67
2023/05/31 00:52:55;;;;;;;5.28;2.20;;;;;;;18.94;36.21;101018.16;4116504;28;20045;-67
2023/05/31 00:55:01;;;;;;;7.05;2.50;;;;;;;18.94;36.12;101008.50;4111853;28;20077;-67
2023/05/31 00:57:05;;;;;;;7.03;2.35;;;;;;;18.90;35.87;101011.19;4115867;28;20085;-67
2023/05/31 00:59:07;;;;;;;8.27;2.38;;;;;;;18.92;35.76;101004.13;4116466;28;20494;-67
2023/05/31 01:01:11;;;;;;;19.48;2.63;;;;;;;18.92;35.92;101002.34;4120627;28;20050;-67
2023/05/31 01:03:15;;;;;;;9.88;2.78;;;;;;;19.01;35.35;101004.00;4116413;28;20476;-67
2023/05/31 01:05:18;;;;;;;6.03;2.45;;;;;;;19.07;34.28;101009.25;4119558;28;20054;-67
2023/05/31 01:07:22;;;;;;;5.57;2.03;;;;;;;19.06;34.87;101004.84;4122539;28;20066;-67
2023/05/31 01:09:26;;;;;;;5.85;2.47;;;;;;;19.05;35.11;101000.47;4099740;28;20111;-67
2023/05/31 01:11:44;;;;;;;6.95;2.50;;;;;;;19.12;34.50;101002.13;4119287;28;20037;-66
2023/05/31 01:13:53;;;;;;;5.07;2.20;;;;;;;19.08;34.14;101003.06;4113133;28;20035;-67
2023/05/31 01:16:07;;;;;;;10.00;2.63;;;;;;;19.06;34.46;101007.47;4102701;28;20091;-67
2023/05/31 01:18:19;;;;;;;8.75;2.13;;;;;;;19.04;34.65;101009.28;4118711;28;20532;-66
2023/05/31 01:20:25;;;;;;;10.77;2.58;;;;;;;19.06;34.54;100998.72;4113244;28;20039;-68
2023/05/31 01:22:41;;;;;;;6.15;2.45;;;;;;;19.11;34.69;101000.38;4102495;28;20050;-67
2023/05/31 01:24:53;;;;;;;7.03;2.45;;;;;;;19.01;34.35;101004.91;4101612;28;20054;-68
2023/05/31 01:27:02;;;;;;;5.85;2.47;;;;;;;19.06;34.61;101002.22;4116713;28;20476;-67
2023/05/31 01:29:08;;;;;;;6.05;2.10;;;;;;;19.00;34.20;100999.66;4121583;28;20122;-68
2023/05/31 01:31:15;;;;;;;5.18;2.60;;;;;;;19.09;33.94;101004.81;4116721;28;20053;-66
2023/05/31 01:33:18;;;;;;;6.18;2.20;;;;;;;19.10;34.29;100998.66;4118105;28;20138;-67
2023/05/31 01:35:21;;;;;;;6.95;2.60;;;;;;;19.06;34.17;100996.06;4117064;28;20097;-67
2023/05/31 01:37:24;;;;;;;5.78;2.42;;;;;;;19.00;34.47;101002.28;4115696;28;20477;-67
2023/05/31 01:39:27;;;;;;;7.07;2.42;;;;;;;18.98;34.92;100997.03;4118813;28;20122;-67
2023/05/31 01:41:34;;;;;;;9.35;2.40;;;;;;;18.96;34.27;100997.94;4119824;28;20041;-67
2023/05/31 01:43:42;;;;;;;4.45;2.22;;;;;;;19.08;33.87;101000.41;4118853;28;20049;-67
2023/05/31 01:45:45;;;;;;;5.35;2.38;;;;;;;18.99;34.34;101003.19;4115678;28;20043;-67
2023/05/31 01:47:50;;;;;;;3.35;1.70;;;;;;;18.82;34.90;101008.59;4118646;28;20043;-67
2023/05/31 01:49:54;;;;;;;6.00;2.25;;;;;;;18.92;35.05;101006.78;4115923;28;20066;-67
2023/05/31 01:51:59;;;;;;;4.50;2.45;;;;;;;18.84;35.07;101005.06;4128970;23;20130;-68
2023/05/31 01:54:02;;;;;;;7.28;2.28;;;;;;;18.96;34.67;101009.34;4098597;29;20047;-69
2023/05/31 01:56:06;;;;;;;7.70;2.30;;;;;;;19.06;34.04;101002.22;4113861;28;20070;-68
2023/05/31 01:58:11;;;;;;;7.47;2.58;;;;;;;18.89;34.78;101002.41;4113884;28;20062;-68
2023/05/31 02:00:16;;;;;;;7.80;2.15;;;;;;;19.06;34.23;101001.34;4113491;28;20122;-67
2023/05/31 02:02:21;;;;;;;6.85;2.50;;;;;;;18.91;34.40;101003.28;4111964;28;20043;-68
2023/05/31 02:04:24;;;;;;;6.55;2.53;;;;;;;18.80;34.61;101005.97;4112186;28;20035;-68
2023/05/31 02:06:27;;;;;;;4.35;2.00;;;;;;;18.79;34.60;101003.38;4098023;29;20638;-69
2023/05/31 02:08:30;;;;;;;8.52;3.10;;;;;;;18.79;34.76;101008.63;4106632;28;20533;-68
2023/05/31 02:10:36;;;;;;;6.05;2.00;;;;;;;18.85;34.75;101011.19;4096681;29;20053;-68
2023/05/31 02:12:39;;;;;;;7.60;2.63;;;;;;;18.82;35.09;101009.50;4093263;28;20122;-68
2023/05/31 02:14:42;;;;;;;10.38;3.45;;;;;;;18.84;34.74;101017.38;4094311;29;20490;-68
2023/05/31 02:16:46;;;;;;;6.93;2.50;;;;;;;18.72;35.10;101007.84;4098674;28;20114;-68
2023/05/31 02:18:51;;;;;;;8.13;2.90;;;;;;;18.73;34.93;101013.97;4110721;28;20532;-69
2023/05/31 02:20:57;;;;;;;6.03;2.85;;;;;;;18.70;35.28;101011.38;4107988;28;20235;-68
2023/05/31 02:23:00;;;;;;;4.32;2.00;;;;;;;18.60;35.57;101021.13;4095654;28;20090;-69
2023/05/31 02:25:08;;;;;;;8.25;3.00;;;;;;;18.61;36.87;101014.97;4094124;29;20050;-69
2023/05/31 02:27:15;;;;;;;10.50;3.15;;;;;;;18.57;39.09;101015.88;4097354;29;20044;-68
2023/05/31 02:29:18;;;;;;;;;;;;;;;18.33;39.81;101012.59;4098767;29;20049;-68
2023/05/31 02:31:22;;;;;;;9.15;3.17;;;;;;;18.16;40.69;101018.00;4097909;28;19929;-68
2023/05/31 02:33:27;;;;;;;14.82;3.28;;;;;;;18.07;40.97;101018.94;4106731;28;20070;-68
2023/05/31 02:35:29;;;;;;;8.63;2.78;;;;;;;17.91;41.70;101018.19;4094816;28;20594;-68
2023/05/31 02:37:33;;;;;;;10.55;3.72;;;;;;;17.94;41.94;101022.56;4095208;29;20685;-68
2023/05/31 02:39:36;;;;;;;8.30;3.15;;;;;;;17.86;42.36;101016.44;4097257;29;20071;-68
2023/05/31 02:41:39;;;;;;;8.73;3.28;;;;;;;17.80;42.68;101018.25;4097205;28;20054;-68
2023/05/31 02:43:41;;;;;;;10.25;3.17;;;;;;;17.69;42.94;101022.69;4095114;29;20036;-68
2023/05/31 02:45:45;;;;;;;9.00;3.78;;;;;;;17.61;43.47;101019.25;4109013;28;20042;-68
2023/05/31 02:47:48;;;;;;;10.52;3.80;;;;;;;17.50;43.80;101026.31;4075121;29;20043;-68
2023/05/31 02:49:52;;;;;;;7.15;3.20;;;;;;;17.51;44.23;101022.78;4096808;28;20045;-67
2023/05/31 02:51:58;;;;;;;9.73;3.42;;;;;;;17.42;44.61;101024.59;4105616;28;20109;-68
2023/05/31 02:54:24;;;;;;;10.68;3.72;;;;;;;17.37;44.87;101018.50;4090378;29;20083;-68
2023/05/31 02:56:27;;;;;;;12.38;3.50;;;;;;;17.39;44.72;101024.63;4078278;29;20074;-68
2023/05/31 02:58:49;;;;;;;12.80;4.03;;;;;;;17.32;44.77;101022.91;4095985;29;20501;-68
2023/05/31 03:01:06;;;;;;;8.23;3.70;;;;;;;17.26;45.01;101017.69;4109083;28;20039;-69
2023/05/31 03:03:18;;;;;;;13.90;3.70;;;;;;;17.19;45.36;101029.97;4110309;28;20039;-69
2023/05/31 03:05:36;;;;;;;9.32;3.72;;;;;;;17.21;45.26;101019.44;4108326;28;20405;-68
2023/05/31 03:07:39;;;;;;;6.78;2.80;;;;;;;17.12;45.38;101019.50;4109070;28;20445;-68
2023/05/31 03:09:42;;;;;;;9.57;3.25;;;;;;;17.02;45.69;101031.78;4095087;29;20077;-68
2023/05/31 03:11:45;;;;;;;11.25;3.20;;;;;;;16.95;45.89;101030.91;4092008;28;20103;-68
2023/05/31 03:13:48;;;;;;;9.45;3.53;;;;;;;16.94;46.19;101031.81;4105792;28;20039;-68
2023/05/31 03:15:51;;;;;;;14.15;3.55;;;;;;;16.89;46.45;101033.56;4110404;28;20042;-68
2023/05/31 03:17:55;;;;;;;8.15;3.92;;;;;;;16.93;46.33;101045.81;4105279;28;20078;-68
2023/05/31 03:19:58;;;;;;;12.43;3.30;;;;;;;16.87;46.31;101035.28;4106379;28;20047;-68
2023/05/31 03:22:03;;;;;;;8.68;3.70;;;;;;;16.90;46.82;101038.81;4108892;28;20065;-69
2023/05/31 03:24:07;;;;;;;12.40;4.00;;;;;;;16.77;46.91;101038.81;4093015;28;20355;-69
2023/05/31 03:26:11;;;;;;;6.95;3.20;;;;;;;16.71;46.47;101045.81;4089616;29;20130;-68
2023/05/31 03:28:15;;;;;;;10.77;3.70;;;;;;;16.73;46.93;101043.19;4091971;29;20069;-68
2023/05/31 03:30:18;;;;;;;11.23;3.43;;;;;;;16.63;47.38;101049.34;4107017;28;20043;-68
2023/05/31 03:32:29;;;;;;;9.25;4.10;;;;;;;16.62;47.07;101051.09;4107754;28;20796;-68
2023/05/31 03:34:32;;;;;;;11.25;3.90;;;;;;;16.66;47.46;101049.31;4094906;28;20070;-69
2023/05/31 03:36:36;;;;;;;18.67;3.47;;;;;;;16.62;47.18;101050.19;4094374;29;20067;-69
2023/05/31 03:38:52;;;;;;;12.43;3.42;;;;;;;16.65;47.04;101044.97;4094917;29;20051;-69
2023/05/31 03:40:55;;;;;;;7.95;3.22;;;;;;;16.64;47.40;101043.22;4092994;29;20296;-69
2023/05/31 03:43:00;;;;;;;9.93;3.50;;;;;;;16.59;47.34;101051.09;4105353;28;20034;-68
2023/05/31 03:45:03;;;;;;;9.07;3.97;;;;;;;16.61;47.27;101051.09;4108338;28;20126;-67
2023/05/31 03:47:07;;;;;;;12.40;3.35;;;;;;;16.57;47.60;101056.34;4095610;29;20075;-68
2023/05/31 03:49:11;;;;;;;11.85;2.90;;;;;;;16.53;47.31;101046.72;4094631;29;20104;-68
2023/05/31 03:51:14;;;;;;;11.90;5.13;;;;;;;16.53;47.55;101056.38;4096642;28;20457;-68
2023/05/31 03:53:17;;;;;;;11.05;3.58;;;;;;;16.53;47.69;101056.38;4092532;28;20039;-68
2023/05/31 03:55:21;;;;;;;12.25;4.15;;;;;;;16.47;48.23;101049.38;4095681;29;20106;-68
2023/05/31 03:57:24;;;;;;;10.98;4.00;;;;;;;16.44;48.12;101053.72;4106549;28;20508;-68
2023/05/31 03:59:27;;;;;;;8.07;3.20;;;;;;;16.42;48.06;101052.88;4104898;28;20045;-60
2023/05/31 04:01:32;;;;;;;13.93;3.58;;;;;;;16.52;48.34;101054.59;4110537;28;20130;-60
2023/05/31 04:03:36;;;;;;;13.98;3.85;;;;;;;16.38;48.52;101055.50;4107820;28;20031;-60
2023/05/31 04:05:43;;;;;;;8.82;3.22;;;;;;;16.46;48.14;101054.63;4093391;29;20506;-60
2023/05/31 04:07:46;;;;;;;11.48;3.72;;;;;;;16.36;48.57;101049.34;4096859;28;20401;-59
2023/05/31 04:09:49;;;;;;;11.05;3.80;;;;;;;16.29;48.28;101055.47;4106738;28;20039;-60
2023/05/31 04:11:54;;;;;;;10.73;3.72;;;;;;;16.30;48.35;101057.22;4092988;28;20528;-69
2023/05/31 04:13:58;;;;;;;11.55;3.90;;;;;;;16.21;49.19;101065.97;4092364;29;20442;-69
2023/05/31 04:16:02;;;;;;;9.57;3.85;;;;;;;16.25;49.25;101063.34;4092837;29;20043;-70
2023/05/31 04:18:06;;;;;;;10.73;3.67;;;;;;;16.25;48.82;101061.59;4079180;29;20056;-69
2023/05/31 04:20:10;;;;;;;13.18;4.28;;;;;;;16.29;49.51;101063.34;4110753;28;20066;-70
2023/05/31 04:22:13;;;;;;;17.70;4.18;;;;;;;16.29;49.45;101067.72;4106762;28;20066;-69
2023/05/31 04:24:16;;;;;;;13.68;4.22;;;;;;;16.34;49.50;101060.72;4108889;28;20502;-70
2023/05/31 04:26:20;;;;;;;11.85;4.20;;;;;;;16.34;49.79;101068.59;4092992;29;20051;-69
2023/05/31 04:28:25;;;;;;;;;;;;;;;16.33;49.58;101062.47;4110127;28;20039;-69
2023/05/31 04:30:28;;;;;;;15.65;4.00;;;;;;;16.37;49.50;101072.09;4094595;29;19965;-69
2023/05/31 04:32:34;;;;;;;19.17;4.95;;;;;;;16.31;49.54;101063.34;4092399;28;20047;-69
2023/05/31 04:34:37;;;;;;;12.88;4.15;;;;;;;16.29;50.23;101067.72;4107427;28;20125;-69
2023/05/31 04:36:42;;;;;;;14.90;4.72;;;;;;;16.33;49.84;101074.72;4105165;28;20038;-69
2023/05/31 04:38:45;;;;;;;14.10;5.00;;;;;;;16.35;49.74;101075.59;4109485;28;20035;-69
2023/05/31 04:40:48;;;;;;;10.93;4.32;;;;;;;16.33;50.48;101070.34;4110299;28;20058;-69
2023/05/31 04:42:51;;;;;;;14.63;4.10;;;;;;;16.39;50.28;101070.34;4094435;29;20035;-69
2023/05/31 04:45:01;;;;;;;10.77;3.38;;;;;;;16.44;49.80;101072.09;4108187;28;20444;-69
2023/05/31 04:47:10;;;;;;;13.80;4.45;;;;;;;16.44;49.70;101066.84;4107253;28;20155;-69
2023/05/31 04:49:13;;;;;;;13.90;4.43;;;;;;;16.48;50.63;101068.59;4095952;29;20465;-69
2023/05/31 04:51:17;;;;;;;14.38;4.22;;;;;;;16.56;50.24;101072.97;4091693;29;20095;-69
2023/05/31 04:53:20;;;;;;;13.57;4.50;;;;;;;16.59;49.71;101077.34;4088044;29;20047;-69
2023/05/31 04:55:23;;;;;;;12.40;4.10;;;;;;;16.62;49.47;101077.34;4095514;28;20472;-69
2023/05/31 04:57:28;;;;;;;13.18;4.18;;;;;;;16.55;49.51;101068.59;4110272;28;20464;-69
2023/05/31 04:59:34;;;;;;;8.80;3.45;;;;;;;16.67;49.86;101070.31;4110951;28;20062;-69
2023/05/31 05:01:40;;;;;;;9.30;3.40;;;;;;;16.63;49.40;101068.59;4079361;29;20099;-69
2023/05/31 05:03:51;;;;;;;10.40;4.13;;;;;;;16.70;49.95;101069.44;4106760;28;20062;-69
2023/05/31 05:05:55;;;;;;;13.73;4.30;;;;;;;16.74;49.40;101069.44;4092792;29;20131;-69
2023/05/31 05:07:58;;;;;;;13.18;3.78;;;;;;;16.67;49.60;101075.56;4091827;29;20063;-69
2023/05/31 05:10:02;;;;;;;9.60;3.47;;;;;;;16.71;49.79;101076.47;4107892;28;20165;-69
2023/05/31 05:12:06;;;;;;;;;;;;;;;16.72;50.26;101073.84;4095486;28;20039;-69
2023/05/31 05:14:09;;;;;;;10.88;3.65;;;;;;;16.89;49.87;101080.84;4089794;29;19927;-69
2023/05/31 05:16:13;;;;;;;10.55;3.65;;;;;;;16.95;48.97;101086.06;4095717;29;20637;-69
2023/05/31 05:18:18;;;;;;;12.80;3.80;;;;;;;17.02;48.92;101085.19;4108619;28;20146;-69
2023/05/31 05:20:21;;;;;;;11.07;4.22;;;;;;;17.02;49.14;101087.81;4094472;29;20042;-69
2023/05/31 05:22:26;;;;;;;17.33;4.00;;;;;;;17.12;48.99;101082.53;4110781;28;20043;-69
2023/05/31 05:24:29;;;;;;;12.10;3.70;;;;;;;17.03;49.35;101086.94;4108485;28;20034;-69
2023/05/31 05:26:32;;;;;;;15.77;4.90;;;;;;;17.14;49.25;101078.16;4091129;29;20094;-69
2023/05/31 05:28:36;;;;;;;11.73;4.10;;;;;;;17.12;48.98;101080.78;4094224;29;20051;-69
2023/05/31 05:30:39;;;;;;;;;;;;;;;17.16;48.98;101085.16;4103953;28;20078;-69
2023/05/31 05:32:42;;;;;;;13.10;4.75;;;;;;;17.09;49.15;101093.94;4091818;29;20316;-68
2023/05/31 05:34:47;;;;;;;17.63;3.80;;;;;;;17.15;49.05;101088.66;4105851;28;20130;-69
2023/05/31 05:36:49;;;;;;;;;;;;;;;17.22;48.57;101092.16;4107180;28;20046;-70
2023/05/31 05:38:52;;;;;;;14.75;4.18;;;;;;;17.30;48.61;101087.72;4111366;28;20309;-69
2023/05/31 05:40:55;;;;;;;11.93;5.00;;;;;;;17.56;46.95;101078.88;4098496;29;20075;-69
2023/05/31 05:42:59;;;;;;;9.83;3.40;;;;;;;17.63;46.63;101080.59;4108247;28;20042;-69
2023/05/31 05:45:07;;;;;;;13.38;3.78;;;;;;;17.63;47.01;101084.06;4096400;29;20032;-69
2023/05/31 05:47:14;;;;;;;12.38;4.00;;;;;;;17.91;45.52;101076.06;4097340;29;20391;-69
2023/05/31 05:49:16;;;;;;;;;;;;;;;17.93;45.59;101078.69;4091157;29;20058;-69
2023/05/31 05:51:23;;;;;;;14.37;4.17;;;;;;;17.97;45.26;101080.41;4112753;28;20401;-68
2023/05/31 05:53:27;;;;;;;10.45;3.22;;;;;;;18.08;45.34;101073.34;4109288;28;20297;-69
2023/05/31 05:55:31;;;;;;;12.15;3.42;;;;;;;18.27;43.92;101079.34;4106863;28;20077;-69
2023/05/31 05:57:34;;;;;;;10.53;3.57;;;;;;;18.36;43.26;101075.75;4097776;28;20513;-69
2023/05/31 05:59:57;;;;;;;12.55;4.78;;;;;;;18.37;43.02;101069.63;4095094;29;20059;-70
2023/05/31 06:02:02;;;;;;;;;;;;;;;18.46;43.16;101074.78;4089462;29;20539;-69
2023/05/31 06:04:05;;;;;;;11.65;3.88;;;;;;;18.55;41.38;101075.59;4095062;28;19923;-70
2023/05/31 06:06:08;;;;;;;10.57;3.25;;;;;;;18.47;41.59;101081.81;4109414;28;20039;-70
2023/05/31 06:08:12;;;;;;;15.85;4.18;;;;;;;18.58;41.34;101072.94;4090787;29;20123;-69
2023/05/31 06:10:15;;;;;;;5.63;2.38;;;;;;;18.67;40.86;101083.38;4110036;28;20039;-69
2023/05/31 06:12:19;;;;;;;8.70;3.05;;;;;;;18.79;40.96;101077.13;4109843;28;20086;-70
2023/05/31 06:14:22;;;;;;;8.32;3.08;;;;;;;18.90;40.55;101075.28;4091178;29;20430;-70
2023/05/31 06:16:27;;;;;;;9.05;3.10;;;;;;;19.05;39.94;101079.50;4096057;29;20043;-69
2023/05/31 06:18:30;;;;;;;8.05;3.30;;;;;;;19.11;40.32;101074.16;4110568;28;20035;-69
2023/05/31 06:20:34;;;;;;;11.65;3.40;;;;;;;19.29;39.84;101082.75;4092434;29;20043;-70
2023/05/31 06:22:40;;;;;;;10.98;2.78;;;;;;;19.30;39.93;101080.13;4096993;28;20043;-69
2023/05/31 06:24:45;;;;;;;10.52;2.92;;;;;;;19.40;39.46;101070.31;4080928;29;20048;-68
2023/05/31 06:26:48;;;;;;;6.60;3.08;;;;;;;19.36;39.82;101069.50;4077595;29;20087;-69
2023/05/31 06:28:51;;;;;;;8.93;3.20;;;;;;;19.41;39.91;101082.63;4091882;29;20039;-68
2023/05/31 06:31:17;;;;;;;9.57;3.40;;;;;;;19.61;40.19;101076.22;4095821;29;20062;-68
2023/05/31 06:33:20;;;;;;;11.00;3.70;;;;;;;19.62;40.11;101076.19;4093145;28;20486;-68
2023/05/31 06:35:23;;;;;;;11.35;3.75;;;;;;;19.87;38.99;101068.84;4096613;29;20039;-68
2023/05/31 06:37:27;;;;;;;9.70;3.28;;;;;;;19.82;39.37;101075.94;4110994;28;20046;-68
2023/05/31 06:39:30;;;;;;;8.27;3.30;;;;;;;19.85;39.17;101078.53;4109403;28;20420;-68
2023/05/31 06:41:36;;;;;;;;;;;;;;;20.03;37.34;101077.41;4097465;29;20303;-68
2023/05/31 06:43:59;;;;;;;6.63;2.83;;;;;;;20.15;36.28;101073.72;4094496;29;20303;-68
2023/05/31 06:46:18;;;;;;;9.82;3.10;;;;;;;20.08;37.24;101073.81;4091283;29;20054;-68
2023/05/31 06:48:41;;;;;;;10.10;2.50;;;;;;;20.16;37.45;101077.22;4098090;28;20054;-68
2023/05/31 06:51:07;;;;;;;11.52;3.42;;;;;;;20.29;36.74;101072.63;4092967;29;20458;-68
2023/05/31 06:53:28;;;;;;;8.73;2.78;;;;;;;20.44;36.30;101082.91;4090623;28;20047;-69
2023/05/31 06:55:51;;;;;;;10.18;2.80;;;;;;;20.40;36.75;101076.81;4094912;29;20051;-69
2023/05/31 06:57:58;;;;;;;11.48;3.03;;;;;;;20.51;36.53;101071.34;4112764;28;20066;-68
2023/05/31 07:00:01;;;;;;;9.60;2.95;;;;;;;20.69;35.54;101061.38;4110054;28;20130;-68
2023/05/31 07:02:04;;;;;;;6.22;3.08;;;;;;;20.65;36.10;101068.47;4094984;28;20040;-68
2023/05/31 07:04:08;;;;;;;4.18;1.88;;;;;;;20.69;36.31;101061.38;4092680;29;20459;-69
2023/05/31 07:06:11;;;;;;;10.10;3.20;;;;;;;20.90;35.15;101070.69;4080041;29;20075;-69
2023/05/31 07:08:15;;;;;;;12.00;3.25;;;;;;;20.98;35.55;101058.19;4108766;28;20564;-69
2023/05/31 07:10:54;;;;;;;6.00;2.47;;;;;;;21.04;34.62;101062.50;4056468;29;20503;-68
2023/05/31 07:12:58;;;;;;;8.17;2.70;;;;;;;21.14;34.40;101052.59;4078880;29;20055;-69
2023/05/31 07:15:01;;;;;;;;;;;;;;;21.26;34.34;101058.53;4079850;29;20531;-69
2023/05/31 07:17:05;;;;;;;8.43;2.75;;;;;;;21.24;33.73;101051.50;4109089;28;19934;-69
2023/05/31 07:19:08;;;;;;;6.55;2.70;;;;;;;21.13;34.58;101057.03;4091642;28;20502;-68
2023/05/31 07:21:13;;;;;;;7.32;2.38;;;;;;;21.09;35.10;101063.28;4104921;28;20461;-69
2023/05/31 07:23:16;;;;;;;5.55;2.47;;;;;;;21.25;34.54;101062.06;4108795;28;20052;-69
2023/05/31 07:25:19;;;;;;;10.45;2.90;;;;;;;21.38;35.13;101064.47;4091875;28;20048;-69
2023/05/31 07:27:22;;;;;;;8.10;2.72;;;;;;;21.54;34.18;101052.69;4093561;28;20077;-68
2023/05/31 07:29:27;;;;;;;10.80;3.33;;;;;;;21.42;34.48;101047.59;4110291;28;20067;-69
2023/05/31 07:31:29;;;;;;;6.97;2.92;;;;;;;;;;4093922;28;20379;-68
2023/05/31 07:33:32;;;;;;;5.75;2.42;;;;;;;21.59;33.81;101053.44;4093248;28;20043;-68
2023/05/31 07:35:35;;;;;;;7.18;2.70;;;;;;;21.52;34.02;101049.19;4094718;29;20040;-68
2023/05/31 07:37:38;;;;;;;7.53;2.55;;;;;;;21.54;34.49;101057.13;4093412;28;20047;-68
2023/05/31 07:39:44;;;;;;;8.88;2.50;;;;;;;21.69;33.52;101042.66;4091155;29;20036;-69
2023/05/31 07:41:47;;;;;;;10.38;3.00;;;;;;;21.70;34.38;101044.38;4094987;28;20122;-68
2023/05/31 07:43:50;;;;;;;5.78;2.60;;;;;;;21.86;33.79;101040.50;4093473;29;20044;-68
2023/05/31 07:45:55;;;;;;;11.48;2.70;;;;;;;21.88;33.47;101030.72;4092588;29;20035;-68
2023/05/31 07:47:58;;;;;;;6.72;2.72;;;;;;;21.96;33.62;101036.72;4095239;28;20042;-68
2023/05/31 07:50:00;;;;;;;5.68;2.38;;;;;;;22.02;33.46;101032.16;4093253;28;20039;-68
2023/05/31 07:52:04;;;;;;;5.60;2.78;;;;;;;22.18;33.73;101030.91;4119661;23;20043;-65
2023/05/31 07:54:07;;;;;;;10.63;2.47;;;;;;;22.36;33.09;101031.38;4112731;28;20066;-65
2023/05/31 07:56:10;;;;;;;5.10;2.53;;;;;;;22.48;32.28;101031.06;4123141;28;20062;-65
2023/05/31 07:58:13;;;;;;;5.40;2.55;;;;;;;22.59;30.77;101029.00;4108264;28;20050;-65
2023/05/31 08:00:16;;;;;;;10.43;2.08;;;;;;;22.63;31.08;101025.34;4124884;28;20420;-65
2023/05/31 08:02:20;;;;;;;8.77;2.93;;;;;;;22.66;31.25;101030.56;4113050;28;20121;-65
2023/05/31 08:04:23;;;;;;;;;;;;;;;22.70;31.53;101015.44;4113635;28;20053;-65
2023/05/31 08:06:26;;;;;;;7.93;2.20;;;;;;;22.73;31.46;101014.50;4111938;28;19926;-65
2023/05/31 08:08:32;;;;;;;8.02;2.45;;;;;;;23.04;30.76;101018.94;4113078;28;20437;-65
2023/05/31 08:10:35;;;;;;;5.90;2.53;;;;;;;23.09;29.73;101019.69;4113634;28;20412;-65
2023/05/31 08:12:38;;;;;;;7.18;2.70;;;;;;;22.95;31.06;101020.06;4112457;28;20043;-65
2023/05/31 08:14:41;;;;;;;11.07;2.78;;;;;;;22.90;30.37;101027.28;4111800;28;20125;-65
2023/05/31 08:16:44;;;;;;;5.65;2.53;;;;;;;23.06;29.90;101011.81;4112967;28;20408;-64
2023/05/31 08:18:49;;;;;;;5.95;2.22;;;;;;;23.08;29.68;101020.59;4113308;28;20497;-65
2023/05/31 08:20:52;;;;;;;6.53;1.92;;;;;;;23.29;29.21;101004.06;4112561;28;20043;-65
2023/05/31 08:22:55;;;;;;;9.48;2.30;;;;;;;23.30;29.29;101015.53;4112118;28;20046;-65
2023/05/31 08:24:58;;;;;;;5.35;2.80;;;;;;;23.41;29.20;101005.47;4111654;28;20090;-65
2023/05/31 08:27:01;;;;;;;6.18;2.22;;;;;;;23.19;30.17;101007.91;4128030;28;20038;-65
2023/05/31 08:29:04;;;;;;;6.75;2.53;;;;;;;23.26;30.42;101003.28;4111926;28;20130;-65
2023/05/31 08:31:07;;;;;;;8.68;2.08;;;;;;;23.35;29.32;101006.53;4111689;28;20097;-65
2023/05/31 08:33:11;;;;;;;6.03;2.13;;;;;;;23.45;29.16;100999.16;4111660;28;20133;-65
2023/05/31 08:35:15;;;;;;;7.82;2.60;;;;;;;23.54;29.19;101003.31;4111640;28;20054;-65
2023/05/31 08:37:20;;;;;;;6.15;2.75;;;;;;;23.76;28.06;101002.63;4109857;28;20481;-65
2023/05/31 08:39:22;;;;;;;8.18;2.65;;;;;;;23.60;28.14;100997.81;4109118;28;20053;-65
2023/05/31 08:41:27;;;;;;;8.82;3.03;;;;;;;23.63;28.58;100996.84;4112952;28;20043;-65
2023/05/31 08:43:32;;;;;;;8.27;3.00;;;;;;;23.69;28.53;101004.63;4094857;28;20543;-65
2023/05/31 08:45:35;;;;;;;;;;;;;;;23.82;28.10;100998.00;4113820;28;20041;-65
2023/05/31 08:47:43;;;;;;;4.72;2.63;;;;;;;23.78;28.56;101000.81;4112561;28;19922;-65
2023/05/31 08:49:48;;;;;;;6.05;2.42;;;;;;;23.84;27.79;100995.28;4111464;28;20035;-65
2023/05/31 08:51:52;;;;;;;10.07;2.85;;;;;;;23.80;28.28;101005.16;4111438;28;20118;-65
2023/05/31 08:53:57;;;;;;;4.45;2.22;;;;;;;23.74;28.10;101002.66;4110844;28;20512;-65
2023/05/31 08:56:02;;;;;;;6.72;2.50;;;;;;;23.83;28.32;101004.16;4108595;28;20042;-65
2023/05/31 08:58:05;;;;;;;7.45;2.53;;;;;;;23.86;28.03;100999.66;4110870;28;20046;-64
2023/05/31 09:00:10;;;;;;;9.93;2.53;;;;;;;24.01;28.10;100998.28;4110188;28;20043;-65
2023/05/31 09:02:15;;;;;;;6.95;2.60;;;;;;;24.03;29.05;100999.13;4111784;28;20047;-65
2023/05/31 09:04:19;;;;;;;8.18;2.40;;;;;;;24.15;28.06;101000.50;4112114;28;20050;-65
2023/05/31 09:06:22;;;;;;;8.53;2.30;;;;;;;24.19;28.54;100990.63;4111546;28;20031;-65
2023/05/31 09:08:26;;;;;;;3.53;2.00;;;;;;;24.36;28.49;100988.25;4110800;28;20043;-65
2023/05/31 09:10:29;;;;;;;6.40;2.47;;;;;;;24.46;28.97;100993.22;4126208;28;20053;-65
2023/05/31 09:12:32;;;;;;;6.57;2.72;;;;;;;24.78;26.74;100989.47;4113666;28;20046;-65
2023/05/31 09:14:35;;;;;;;5.78;2.47;;;;;;;24.66;26.42;100990.78;4113747;28;20546;-66
2023/05/31 09:16:38;;;;;;;8.85;2.60;;;;;;;24.47;27.67;100989.66;4115351;28;20556;-65
2023/05/31 09:18:41;;;;;;;8.23;2.63;;;;;;;24.62;27.04;100988.28;4113268;28;20101;-66
2023/05/31 09:20:44;;;;;;;9.70;2.65;;;;;;;24.63;26.41;100984.69;4114438;28;20039;-65
2023/05/31 09:23:02;;;;;;;;;;;;;;;24.66;26.62;100984.59;4112827;28;20041;-65
2023/05/31 09:25:07;;;;;;;10.68;2.38;;;;;;;24.63;28.15;100987.34;4113237;28;19922;-65
2023/05/31 09:27:11;;;;;;;14.50;2.70;;;;;;;24.74;26.93;100979.88;4110461;28;20130;-65
2023/05/31 09:29:15;;;;;;;5.03;2.47;;;;;;;24.91;26.04;100982.75;4115257;28;20042;-65
2023/05/31 09:31:18;;;;;;;5.28;2.20;;;;;;;24.92;26.30;100973.00;4114909;28;20082;-65
2023/05/31 09:33:21;;;;;;;3.83;2.13;;;;;;;24.74;26.85;100970.09;4114522;28;20039;-65
2023/05/31 09:35:27;;;;;;;6.30;2.90;;;;;;;24.83;26.42;100957.38;4113380;28;20125;-65
2023/05/31 09:37:30;;;;;;;4.57;2.00;;;;;;;24.65;27.50;100962.47;4114937;28;20126;-65
2023/05/31 09:39:33;;;;;;;5.20;2.30;;;;;;;24.85;27.48;100947.53;4113747;28;20135;-65
2023/05/31 09:41:38;;;;;;;5.60;2.60;;;;;;;25.07;26.80;100958.22;4115855;28;20127;-65
2023/05/31 09:43:41;;;;;;;8.18;3.03;;;;;;;25.08;27.17;100968.81;4129414;28;20304;-65